Sedalia, North Carolina
Current Conditions -  °F | °C
As of 7:54 PM on Sunday 23 Nov 2014 (Local Time) from KBUY Reporting Station
Light Rain Light Rain  
Wind Chill: 56°   Ceiling: 300
Heat Index: 56°   Visibility: 8mi
Dew Point: 54°   Wind: 8mph
Humidity: 93%   Direction: 100°E
Pressure: 29.85"   Gusts: NA
Location:  36.07°N, 79.62°W
Report Text: KBUY 240054Z AUTO 10007KT 8SM -RA OVC003 13/12 A2985 RMK AO2 SLP107 P0005 T01330122
Loading
Personal Weather Stations






























Interactive Weather Map New forecast layout! Learn more

10-Day Weather Forecast

Advertisements
Track Severe Weather on mobile